createdAt,value
2023-04-21T00:00:03.431Z,0
2023-04-21T00:05:04.006Z,0
2023-04-21T00:10:03.095Z,0
2023-04-21T00:15:02.845Z,0
2023-04-21T00:20:02.573Z,0
2023-04-21T00:25:02.442Z,0
2023-04-21T00:30:03.269Z,0
2023-04-21T00:35:03.093Z,0
2023-04-21T00:40:02.796Z,0
2023-04-21T00:45:02.501Z,0
2023-04-21T00:50:03.263Z,0
2023-04-21T00:55:03.400Z,0
2023-04-21T01:00:02.823Z,0
2023-04-21T01:05:02.812Z,0
2023-04-21T01:10:02.591Z,0
2023-04-21T01:15:03.452Z,0
2023-04-21T01:20:03.078Z,0
2023-04-21T01:25:03.119Z,0
2023-04-21T01:30:02.936Z,0
2023-04-21T01:35:02.660Z,0
2023-04-21T01:40:02.572Z,0
2023-04-21T01:45:03.273Z,0
2023-04-21T01:50:02.913Z,0
2023-04-21T01:55:03.758Z,0
2023-04-21T02:00:02.985Z,0
2023-04-21T02:05:02.446Z,0
2023-04-21T02:10:03.288Z,0
2023-04-21T02:15:03.073Z,0
2023-04-21T02:20:04.434Z,0
2023-04-21T02:25:03.329Z,0
2023-04-21T02:30:02.486Z,0
2023-04-21T02:35:03.393Z,0
2023-04-21T02:40:02.893Z,0
2023-04-21T02:45:02.635Z,0
2023-04-21T02:50:03.275Z,0
2023-04-21T02:55:03.514Z,0
2023-04-21T03:00:02.903Z,0
2023-04-21T03:05:02.643Z,0
2023-04-21T03:10:02.849Z,0
2023-04-21T03:15:02.659Z,0
2023-04-21T03:20:03.381Z,0.23
2023-04-21T03:25:03.302Z,0.68
2023-04-21T03:30:03.125Z,1.81
2023-04-21T03:35:02.847Z,4.3
2023-04-21T03:40:02.549Z,9.73
2023-04-21T03:45:03.271Z,8.33
2023-04-21T03:50:02.976Z,21.67
2023-04-21T03:55:03.618Z,43.33
2023-04-21T04:00:02.522Z,76.67
2023-04-21T04:05:03.314Z,126.67
2023-04-21T04:10:02.931Z,191.67
2023-04-21T04:15:02.991Z,263.33
2023-04-21T04:20:02.730Z,356.67
2023-04-21T04:25:02.488Z,453.33
2023-04-21T04:30:03.440Z,565
2023-04-21T04:35:03.129Z,676.67
2023-04-21T04:40:02.409Z,810
2023-04-21T04:45:03.384Z,1113.33
2023-04-21T04:50:02.835Z,1268.33
2023-04-21T04:55:02.912Z,1438.33
2023-04-21T05:00:02.442Z,1620
2023-04-21T05:05:03.487Z,1863.33
2023-04-21T05:10:03.097Z,2073.33
2023-04-21T05:15:02.763Z,2226.67
2023-04-21T05:20:02.484Z,2278.33
2023-04-21T05:25:02.445Z,2476.67
2023-04-21T05:30:02.443Z,2696.67
2023-04-21T05:35:03.217Z,3153.33
2023-04-21T05:40:02.471Z,3478.33
2023-04-21T05:45:02.895Z,3683.33
2023-04-21T05:50:02.551Z,3861.67
2023-04-21T05:55:03.099Z,4266.67
2023-04-21T06:00:03.102Z,3955
2023-04-21T06:05:03.418Z,3773.33
2023-04-21T06:10:02.720Z,4298.33
2023-04-21T06:15:02.929Z,4601.67
2023-04-21T06:20:02.771Z,4476.67
2023-04-21T06:25:02.441Z,5900
2023-04-21T06:30:03.253Z,4673.33
2023-04-21T06:35:03.061Z,5618.33
2023-04-21T06:40:02.636Z,7635
2023-04-21T06:45:02.402Z,8105
2023-04-21T06:50:03.203Z,8541.67
2023-04-21T07:00:02.945Z,9333.33
2023-04-21T07:05:02.688Z,10040
2023-04-21T07:10:02.411Z,11038.33
2023-04-21T07:15:03.157Z,12040
2023-04-21T07:30:03.317Z,12220
2023-04-21T07:35:02.950Z,12923.33
2023-04-21T07:40:02.841Z,27383.33
2023-04-21T07:45:02.855Z,29900
2023-04-21T07:50:02.707Z,31980
2023-04-21T07:55:03.528Z,34226.67
2023-04-21T08:00:02.599Z,37123.33
2023-04-21T08:05:03.788Z,37340
2023-04-21T08:10:02.964Z,37626.67
2023-04-21T08:15:02.737Z,40680
2023-04-21T08:20:02.647Z,63641.72
2023-04-21T08:30:03.177Z,61668.75
2023-04-21T08:35:03.111Z,43523.33
2023-04-21T08:40:03.027Z,41790
2023-04-21T08:45:02.776Z,43180
2023-04-21T08:50:02.447Z,42443.33
2023-04-21T08:55:03.631Z,42920
2023-04-21T09:00:06.559Z,46966.67
2023-04-21T09:05:03.813Z,47776.67
2023-04-21T09:20:02.491Z,60953.59
2023-04-21T09:30:03.135Z,66243.59
2023-04-21T09:35:02.929Z,65368.52
2023-04-21T09:40:05.671Z,62845.7
2023-04-21T09:45:39.440Z,60215.08
2023-04-21T09:50:03.023Z,48053.33
2023-04-21T09:55:03.600Z,62055.08
2023-04-21T10:00:03.125Z,65715.31
2023-04-21T10:10:02.580Z,69596.56
2023-04-21T10:15:02.557Z,71533.59
2023-04-21T10:20:03.340Z,71368.28
2023-04-21T10:25:03.096Z,69882.27
2023-04-21T10:35:02.779Z,72881.25
2023-04-21T10:40:02.578Z,7680
2023-04-21T10:45:03.415Z,6046.67
2023-04-21T10:50:03.054Z,82918.59
2023-04-21T11:00:02.612Z,81587.11
2023-04-21T11:05:03.477Z,80503.59
2023-04-21T11:10:02.997Z,81883.59
2023-04-21T11:15:02.913Z,85037.11
2023-04-21T11:20:02.906Z,78692.34
2023-04-21T11:25:03.237Z,82670.63
2023-04-21T11:30:02.722Z,11143.33
2023-04-21T11:35:02.450Z,84129.69
2023-04-21T11:40:03.185Z,83951.8
2023-04-21T11:45:02.960Z,83587.03
2023-04-21T11:50:03.079Z,85937.34
2023-04-21T11:55:03.483Z,84413.59
2023-04-21T12:00:02.998Z,94026.88
2023-04-21T12:05:03.417Z,94878.59
2023-04-21T12:10:02.776Z,70212.89
2023-04-21T12:15:02.560Z,83633.75
2023-04-21T12:20:03.276Z,79942.97
2023-04-21T12:25:03.091Z,78088.59
2023-04-21T12:30:03.350Z,72960.31
2023-04-21T12:35:03.376Z,73229.84
2023-04-21T12:40:02.893Z,8473.33
2023-04-21T12:45:02.600Z,78701.33
2023-04-21T12:50:03.309Z,77987.97
2023-04-21T12:55:03.887Z,85326.41
2023-04-21T13:00:03.093Z,85261.72
2023-04-21T13:05:02.831Z,69747.5
2023-04-21T13:10:02.609Z,69431.25
2023-04-21T13:15:02.487Z,64162.81
2023-04-21T13:20:03.410Z,49896.67
2023-04-21T13:25:03.409Z,44886.67
2023-04-21T13:30:03.189Z,46430
2023-04-21T13:35:02.752Z,45243.33
2023-04-21T13:40:02.640Z,44920
2023-04-21T13:45:03.382Z,42743.33
2023-04-21T13:50:03.460Z,44480
2023-04-21T13:55:03.891Z,45850
2023-04-21T14:00:02.712Z,59688.59
2023-04-21T14:05:03.178Z,6003.33
2023-04-21T14:10:03.240Z,47713.33
2023-04-21T14:15:03.477Z,9036.67
2023-04-21T14:20:03.012Z,40673.33
2023-04-21T14:25:02.565Z,8426.67
2023-04-21T14:30:03.569Z,36793.33
2023-04-21T14:35:03.150Z,35336.67
2023-04-21T14:40:02.891Z,33323.33
2023-04-21T14:45:02.700Z,30596.67
2023-04-21T14:50:03.330Z,30096.67
2023-04-21T14:55:04.434Z,6143.33
2023-04-21T15:00:02.979Z,4736.67
2023-04-21T15:05:02.776Z,12803.33
2023-04-21T15:10:03.592Z,12196.67
2023-04-21T15:15:03.395Z,12548.33
2023-04-21T15:20:03.123Z,12203.33
2023-04-21T15:25:02.999Z,28236.67
2023-04-21T15:30:02.797Z,30040
2023-04-21T15:35:02.486Z,13578.33
2023-04-21T15:40:03.298Z,8643.33
2023-04-21T15:45:03.328Z,8853.33
2023-04-21T15:50:02.880Z,7481.67
2023-04-21T15:55:03.528Z,6413.33
2023-04-21T16:00:02.722Z,6560
2023-04-21T16:05:03.777Z,6796.67
2023-04-21T16:10:03.176Z,7396.67
2023-04-21T16:15:24.059Z,7033.33
2023-04-21T16:20:02.754Z,6300
2023-04-21T16:25:02.655Z,4901.67
2023-04-21T16:30:06.050Z,4498.33
2023-04-21T16:35:02.506Z,3995
2023-04-21T16:40:03.187Z,3826.67
2023-04-21T16:45:03.235Z,3490
2023-04-21T16:50:02.777Z,3328.33
2023-04-21T16:55:03.545Z,3106.67
2023-04-21T17:00:02.527Z,2930
2023-04-21T17:05:03.457Z,2590
2023-04-21T17:10:02.873Z,2406.67
2023-04-21T17:15:03.249Z,2165
2023-04-21T17:20:03.151Z,1921.67
2023-04-21T17:25:02.886Z,1726.67
2023-04-21T17:30:02.512Z,1511.67
2023-04-21T17:35:02.529Z,1321.67
2023-04-21T17:40:03.748Z,1120
2023-04-21T17:45:03.181Z,948.33
2023-04-21T17:50:02.781Z,781.67
2023-04-21T17:55:03.507Z,635
2023-04-21T18:00:02.427Z,503.33
2023-04-21T18:05:03.448Z,388.33
2023-04-21T18:10:03.133Z,283.33
2023-04-21T18:15:03.012Z,131.67
2023-04-21T18:20:02.615Z,80
2023-04-21T18:25:03.375Z,43.33
2023-04-21T18:30:03.051Z,21.67
2023-04-21T18:35:02.668Z,8.33
2023-04-21T18:40:02.366Z,9.85
2023-04-21T18:45:05.048Z,4.41
2023-04-21T18:50:02.992Z,1.92
2023-04-21T18:55:03.443Z,0.68
2023-04-21T19:00:02.489Z,0.23
2023-04-21T19:05:02.413Z,0
2023-04-21T19:10:03.280Z,0
2023-04-21T19:15:03.184Z,0
2023-04-21T19:20:02.930Z,0
2023-04-21T19:25:02.748Z,0
2023-04-21T19:30:02.516Z,0
2023-04-21T19:35:03.216Z,0
2023-04-21T19:40:03.097Z,0
2023-04-21T19:45:02.864Z,0
2023-04-21T19:50:02.915Z,0
2023-04-21T19:55:03.519Z,0
2023-04-21T20:00:02.645Z,0
2023-04-21T20:05:03.503Z,0
2023-04-21T20:10:02.998Z,0
2023-04-21T20:15:02.795Z,0
2023-04-21T20:20:02.532Z,0
2023-04-21T20:25:02.408Z,0
2023-04-21T20:30:03.187Z,0
2023-04-21T20:35:02.876Z,0
2023-04-21T20:40:02.867Z,0
2023-04-21T20:45:03.305Z,0
2023-04-21T20:50:03.165Z,0
2023-04-21T20:55:03.064Z,0
2023-04-21T21:00:02.527Z,0
2023-04-21T21:05:03.592Z,0
2023-04-21T21:10:03.018Z,0
2023-04-21T21:15:03.184Z,0
2023-04-21T21:20:02.828Z,0
2023-04-21T21:25:02.638Z,0
2023-04-21T21:30:03.422Z,0
2023-04-21T21:35:03.035Z,0
2023-04-21T21:40:03.027Z,0
2023-04-21T21:45:02.776Z,0
2023-04-21T21:50:02.520Z,0
2023-04-21T21:55:03.708Z,0
2023-04-21T22:00:03.117Z,0
2023-04-21T22:05:02.781Z,0
2023-04-21T22:10:02.728Z,0
2023-04-21T22:15:02.872Z,0
2023-04-21T22:20:02.628Z,0
2023-04-21T22:25:02.539Z,0
2023-04-21T22:30:02.648Z,0
2023-04-21T22:35:02.518Z,0
2023-04-21T22:40:03.220Z,0
2023-04-21T22:45:03.036Z,0
2023-04-21T22:50:02.761Z,0
2023-04-21T22:55:03.375Z,0
2023-04-21T23:00:03.432Z,0
2023-04-21T23:05:02.827Z,0
2023-04-21T23:10:02.625Z,0
2023-04-21T23:15:04.409Z,0
2023-04-21T23:20:03.292Z,0
2023-04-21T23:25:03.052Z,0
2023-04-21T23:30:02.858Z,0
2023-04-21T23:35:02.820Z,0
2023-04-21T23:40:02.571Z,0
2023-04-21T23:45:03.403Z,0
2023-04-21T23:50:03.108Z,0
2023-04-21T23:55:03.673Z,0
